Asotin, WA (99402)

12:56 PM PST on December 04, 2016 (GMT -0800)
Nick's Weather Station | | Change Station

Elev 1076 ft 46.37 °N, 117.04 °W | Updated 16 minutes ago

Rain
Rain
42.8 °F
Feels Like 43 °F
N
0.0
Wind Variable Wind from North
Gusts 0.0 mph

Today
High -- | Low -- °F
--% Chance of Precip.
Yesterday
High -- | Low -- °F
Precip. -- in
Pressure 29.82 in
Visibility 4.0 miles
Clouds Mostly Cloudy 2100 ft
Mostly Cloudy 3200 ft
Overcast 9500 ft
Windchill 43 °F
Dew Point 37 °F
Humidity 79%
Rainfall 0.09 in
Snow Depth Not available.
7:14 AM 4:02 PM
Waxing Crescent, 25% visible
SPECI KLWS 042030Z 29018G28KT 4SM RA BKN021 BKN032 OVC095 04/01 A2982 RMK AO2 PK WND 29028/2027 RAB18 P0001 T00440011
Pressure 29.82 in
Visibility 4.0 miles
Clouds Mostly Cloudy 2100 ft
Mostly Cloudy 3200 ft
Overcast 9500 ft
Windchill 43 °F
Dew Point 37 °F
Humidity 79%
Rainfall 0.09 in
Snow Depth Not available.
7:14 AM 4:02 PM
Waxing Crescent, 25% visible
SPECI KLWS 042030Z 29018G28KT 4SM RA BKN021 BKN032 OVC095 04/01 A2982 RMK AO2 PK WND 29028/2027 RAB18 P0001 T00440011

10-Day Weather Forecast

Almanac

Astronomy

Dec. 04, 2016 Rise Set
Actual Time
Civil Twilight
Nautical Twilight
Astronomical Twilight
Moon
Length of Visible Light
Length of Day
Tomorrow will be .
, % of the Moon is Illuminated

Today's Extremes

State Highs State Lows

Community

WunderPhotos

Upload Photos

1,955,667 photos uploaded!

WunderBlog® & News

Nearby

Air Quality

  Air Quality AQ Index Pollutant
Not available.

Snow Depth

Station Depth Elevation

Earthquake Activity

City Distance Mag. Time & Date
Minimum magnitude displayed is 2.5.

Coastal Water Temperatures

Place Temperature

Stations

Nearby Weather Stations

Station Location Temp. Windchill Dew Point Humidity Wind Precip. Elev Updated Type
                   

Watches & Warnings

There are currently no watches in effect.